sensor_id;sensor_type;location;lat;lon;timestamp;P1;durP1;ratioP1;P2;durP2;ratioP2
50773;SDS011;36745;48.544;8.918;2023-12-04T00:02:48;56.85;;;26.85;;
50773;SDS011;36745;48.544;8.918;2023-12-04T00:06:09;64.28;;;28.25;;
50773;SDS011;36745;48.544;8.918;2023-12-04T00:09:30;64.10;;;28.17;;
50773;SDS011;36745;48.544;8.918;2023-12-04T00:12:49;57.55;;;27.67;;
50773;SDS011;36745;48.544;8.918;2023-12-04T00:16:09;58.40;;;28.38;;
50773;SDS011;36745;48.544;8.918;2023-12-04T00:19:29;55.95;;;26.52;;
50773;SDS011;36745;48.544;8.918;2023-12-04T00:22:49;57.65;;;28.20;;
50773;SDS011;36745;48.544;8.918;2023-12-04T00:26:09;59.95;;;27.65;;
50773;SDS011;36745;48.544;8.918;2023-12-04T00:29:29;55.97;;;27.83;;
50773;SDS011;36745;48.544;8.918;2023-12-04T00:32:49;55.85;;;27.08;;
50773;SDS011;36745;48.544;8.918;2023-12-04T00:36:09;62.72;;;28.08;;
50773;SDS011;36745;48.544;8.918;2023-12-04T00:39:29;56.20;;;26.73;;
50773;SDS011;36745;48.544;8.918;2023-12-04T00:42:49;58.47;;;28.70;;
50773;SDS011;36745;48.544;8.918;2023-12-04T00:46:09;63.22;;;29.38;;
50773;SDS011;36745;48.544;8.918;2023-12-04T00:49:29;53.10;;;26.45;;
50773;SDS011;36745;48.544;8.918;2023-12-04T00:52:48;55.85;;;26.02;;
50773;SDS011;36745;48.544;8.918;2023-12-04T00:56:08;54.38;;;26.77;;
50773;SDS011;36745;48.544;8.918;2023-12-04T00:59:28;57.38;;;26.83;;
50773;SDS011;36745;48.544;8.918;2023-12-04T01:02:48;55.58;;;25.83;;
50773;SDS011;36745;48.544;8.918;2023-12-04T01:06:08;56.65;;;27.42;;
50773;SDS011;36745;48.544;8.918;2023-12-04T01:09:39;62.40;;;28.73;;
50773;SDS011;36745;48.544;8.918;2023-12-04T01:12:58;65.53;;;26.65;;
50773;SDS011;36745;48.544;8.918;2023-12-04T01:16:18;52.42;;;25.35;;
50773;SDS011;36745;48.544;8.918;2023-12-04T01:19:38;54.15;;;26.48;;
50773;SDS011;36745;48.544;8.918;2023-12-04T01:22:58;64.63;;;27.58;;
50773;SDS011;36745;48.544;8.918;2023-12-04T01:26:18;68.97;;;27.40;;
50773;SDS011;36745;48.544;8.918;2023-12-04T01:29:37;60.97;;;28.52;;
50773;SDS011;36745;48.544;8.918;2023-12-04T01:32:57;66.55;;;30.55;;
50773;SDS011;36745;48.544;8.918;2023-12-04T01:36:17;67.05;;;29.08;;
50773;SDS011;36745;48.544;8.918;2023-12-04T01:39:36;78.40;;;31.65;;
50773;SDS011;36745;48.544;8.918;2023-12-04T01:42:56;70.72;;;31.88;;
50773;SDS011;36745;48.544;8.918;2023-12-04T01:46:16;54.58;;;26.25;;
50773;SDS011;36745;48.544;8.918;2023-12-04T01:49:36;52.72;;;25.83;;
50773;SDS011;36745;48.544;8.918;2023-12-04T01:52:56;55.15;;;26.20;;
50773;SDS011;36745;48.544;8.918;2023-12-04T01:56:16;49.13;;;25.17;;
50773;SDS011;36745;48.544;8.918;2023-12-04T01:59:36;56.75;;;28.02;;
50773;SDS011;36745;48.544;8.918;2023-12-04T02:02:56;58.28;;;27.73;;
50773;SDS011;36745;48.544;8.918;2023-12-04T02:06:17;45.35;;;24.25;;
50773;SDS011;36745;48.544;8.918;2023-12-04T02:09:39;49.30;;;25.60;;
50773;SDS011;36745;48.544;8.918;2023-12-04T02:12:59;51.83;;;25.85;;
50773;SDS011;36745;48.544;8.918;2023-12-04T02:16:19;49.70;;;25.08;;
50773;SDS011;36745;48.544;8.918;2023-12-04T02:19:42;50.35;;;25.50;;
50773;SDS011;36745;48.544;8.918;2023-12-04T02:23:02;50.05;;;25.85;;
50773;SDS011;36745;48.544;8.918;2023-12-04T02:26:23;49.40;;;25.10;;
50773;SDS011;36745;48.544;8.918;2023-12-04T02:29:51;50.75;;;24.50;;
50773;SDS011;36745;48.544;8.918;2023-12-04T02:33:14;46.92;;;25.35;;
50773;SDS011;36745;48.544;8.918;2023-12-04T02:36:37;45.90;;;23.50;;
50773;SDS011;36745;48.544;8.918;2023-12-04T02:39:59;45.28;;;23.88;;
50773;SDS011;36745;48.544;8.918;2023-12-04T02:43:20;44.63;;;22.88;;
50773;SDS011;36745;48.544;8.918;2023-12-04T02:46:39;45.80;;;23.50;;
50773;SDS011;36745;48.544;8.918;2023-12-04T02:49:59;44.67;;;24.33;;
50773;SDS011;36745;48.544;8.918;2023-12-04T02:53:19;49.05;;;24.42;;
50773;SDS011;36745;48.544;8.918;2023-12-04T02:56:39;44.40;;;22.63;;
50773;SDS011;36745;48.544;8.918;2023-12-04T02:59:59;41.60;;;22.25;;
50773;SDS011;36745;48.544;8.918;2023-12-04T03:03:18;39.70;;;22.08;;
50773;SDS011;36745;48.544;8.918;2023-12-04T03:06:38;41.47;;;21.08;;
50773;SDS011;36745;48.544;8.918;2023-12-04T03:09:58;39.30;;;21.20;;
50773;SDS011;36745;48.544;8.918;2023-12-04T03:13:18;37.17;;;20.75;;
50773;SDS011;36745;48.544;8.918;2023-12-04T03:16:37;40.72;;;21.20;;
50773;SDS011;36745;48.544;8.918;2023-12-04T03:19:57;37.85;;;20.77;;
50773;SDS011;36745;48.544;8.918;2023-12-04T03:23:17;35.80;;;19.40;;
50773;SDS011;36745;48.544;8.918;2023-12-04T03:26:37;38.47;;;20.38;;
50773;SDS011;36745;48.544;8.918;2023-12-04T03:29:56;36.65;;;20.58;;
50773;SDS011;36745;48.544;8.918;2023-12-04T03:33:16;35.55;;;20.23;;
50773;SDS011;36745;48.544;8.918;2023-12-04T03:36:36;41.58;;;21.05;;
50773;SDS011;36745;48.544;8.918;2023-12-04T03:39:56;39.53;;;21.00;;
50773;SDS011;36745;48.544;8.918;2023-12-04T03:43:16;35.83;;;19.88;;
50773;SDS011;36745;48.544;8.918;2023-12-04T03:46:35;37.03;;;20.05;;
50773;SDS011;36745;48.544;8.918;2023-12-04T03:49:55;40.47;;;21.73;;
50773;SDS011;36745;48.544;8.918;2023-12-04T03:53:15;37.00;;;20.90;;
50773;SDS011;36745;48.544;8.918;2023-12-04T03:56:35;37.53;;;20.55;;
50773;SDS011;36745;48.544;8.918;2023-12-04T03:59:55;36.38;;;20.75;;
50773;SDS011;36745;48.544;8.918;2023-12-04T04:03:15;32.63;;;20.00;;
50773;SDS011;36745;48.544;8.918;2023-12-04T04:06:35;34.03;;;19.88;;
50773;SDS011;36745;48.544;8.918;2023-12-04T04:09:57;38.03;;;19.52;;
50773;SDS011;36745;48.544;8.918;2023-12-04T04:13:17;35.17;;;19.35;;
50773;SDS011;36745;48.544;8.918;2023-12-04T04:16:37;35.20;;;19.77;;
50773;SDS011;36745;48.544;8.918;2023-12-04T04:19:56;35.53;;;19.00;;
50773;SDS011;36745;48.544;8.918;2023-12-04T04:23:16;38.03;;;21.90;;
50773;SDS011;36745;48.544;8.918;2023-12-04T04:26:36;38.17;;;19.70;;
50773;SDS011;36745;48.544;8.918;2023-12-04T04:29:56;36.10;;;18.77;;
50773;SDS011;36745;48.544;8.918;2023-12-04T04:33:16;35.20;;;19.48;;
50773;SDS011;36745;48.544;8.918;2023-12-04T04:36:36;42.45;;;20.92;;
50773;SDS011;36745;48.544;8.918;2023-12-04T04:39:56;41.13;;;21.33;;
50773;SDS011;36745;48.544;8.918;2023-12-04T04:43:16;44.95;;;21.98;;
50773;SDS011;36745;48.544;8.918;2023-12-04T04:46:36;38.25;;;21.65;;
50773;SDS011;36745;48.544;8.918;2023-12-04T04:49:56;43.22;;;23.17;;
50773;SDS011;36745;48.544;8.918;2023-12-04T04:53:15;41.13;;;22.35;;
50773;SDS011;36745;48.544;8.918;2023-12-04T04:56:35;50.10;;;24.95;;
50773;SDS011;36745;48.544;8.918;2023-12-04T04:59:55;47.08;;;24.70;;
50773;SDS011;36745;48.544;8.918;2023-12-04T05:03:15;46.85;;;22.98;;
50773;SDS011;36745;48.544;8.918;2023-12-04T05:06:34;44.70;;;24.25;;
50773;SDS011;36745;48.544;8.918;2023-12-04T05:09:54;45.92;;;22.80;;
50773;SDS011;36745;48.544;8.918;2023-12-04T05:13:14;41.08;;;22.85;;
50773;SDS011;36745;48.544;8.918;2023-12-04T05:16:34;44.63;;;23.33;;
50773;SDS011;36745;48.544;8.918;2023-12-04T05:19:54;38.72;;;21.25;;
50773;SDS011;36745;48.544;8.918;2023-12-04T05:23:13;40.47;;;21.83;;
50773;SDS011;36745;48.544;8.918;2023-12-04T05:26:33;39.00;;;22.45;;
50773;SDS011;36745;48.544;8.918;2023-12-04T05:29:53;39.75;;;20.85;;
50773;SDS011;36745;48.544;8.918;2023-12-04T05:33:13;37.05;;;21.10;;
50773;SDS011;36745;48.544;8.918;2023-12-04T05:36:32;39.92;;;20.42;;
50773;SDS011;36745;48.544;8.918;2023-12-04T05:39:52;38.63;;;20.13;;
50773;SDS011;36745;48.544;8.918;2023-12-04T05:43:12;40.75;;;20.60;;
50773;SDS011;36745;48.544;8.918;2023-12-04T05:46:32;34.53;;;19.67;;
50773;SDS011;36745;48.544;8.918;2023-12-04T05:49:52;44.50;;;21.25;;
50773;SDS011;36745;48.544;8.918;2023-12-04T05:53:11;46.38;;;24.27;;
50773;SDS011;36745;48.544;8.918;2023-12-04T05:56:31;35.42;;;19.67;;
50773;SDS011;36745;48.544;8.918;2023-12-04T05:59:51;41.53;;;22.25;;
50773;SDS011;36745;48.544;8.918;2023-12-04T06:03:11;46.95;;;23.55;;
50773;SDS011;36745;48.544;8.918;2023-12-04T06:06:31;43.78;;;23.38;;
50773;SDS011;36745;48.544;8.918;2023-12-04T06:09:50;54.15;;;27.63;;
50773;SDS011;36745;48.544;8.918;2023-12-04T06:13:10;56.88;;;28.77;;
50773;SDS011;36745;48.544;8.918;2023-12-04T06:16:30;55.95;;;27.58;;
50773;SDS011;36745;48.544;8.918;2023-12-04T06:19:50;53.47;;;26.85;;
50773;SDS011;36745;48.544;8.918;2023-12-04T06:23:10;46.28;;;24.63;;
50773;SDS011;36745;48.544;8.918;2023-12-04T06:26:31;48.58;;;24.67;;
50773;SDS011;36745;48.544;8.918;2023-12-04T06:29:51;46.50;;;23.17;;
50773;SDS011;36745;48.544;8.918;2023-12-04T06:33:11;43.35;;;23.40;;
50773;SDS011;36745;48.544;8.918;2023-12-04T06:36:35;42.08;;;22.73;;
50773;SDS011;36745;48.544;8.918;2023-12-04T06:39:59;43.13;;;22.58;;
50773;SDS011;36745;48.544;8.918;2023-12-04T06:43:19;47.35;;;23.75;;
50773;SDS011;36745;48.544;8.918;2023-12-04T06:46:39;44.42;;;22.50;;
50773;SDS011;36745;48.544;8.918;2023-12-04T06:50:00;42.20;;;22.40;;
50773;SDS011;36745;48.544;8.918;2023-12-04T06:53:20;57.40;;;26.10;;
50773;SDS011;36745;48.544;8.918;2023-12-04T06:56:39;47.65;;;26.10;;
50773;SDS011;36745;48.544;8.918;2023-12-04T06:59:59;43.92;;;22.80;;
50773;SDS011;36745;48.544;8.918;2023-12-04T07:03:19;38.05;;;19.98;;
50773;SDS011;36745;48.544;8.918;2023-12-04T07:06:39;38.35;;;20.25;;
50773;SDS011;36745;48.544;8.918;2023-12-04T07:09:59;39.28;;;21.45;;
50773;SDS011;36745;48.544;8.918;2023-12-04T07:13:19;41.30;;;21.83;;
50773;SDS011;36745;48.544;8.918;2023-12-04T07:16:42;42.38;;;22.55;;
50773;SDS011;36745;48.544;8.918;2023-12-04T07:20:02;42.40;;;24.00;;
50773;SDS011;36745;48.544;8.918;2023-12-04T07:23:23;58.20;;;26.80;;
50773;SDS011;36745;48.544;8.918;2023-12-04T07:26:43;47.08;;;25.42;;
50773;SDS011;36745;48.544;8.918;2023-12-04T07:30:03;46.22;;;24.42;;
50773;SDS011;36745;48.544;8.918;2023-12-04T07:33:23;44.67;;;24.60;;
50773;SDS011;36745;48.544;8.918;2023-12-04T07:36:43;70.68;;;32.35;;
50773;SDS011;36745;48.544;8.918;2023-12-04T07:40:03;64.57;;;30.52;;
50773;SDS011;36745;48.544;8.918;2023-12-04T07:43:25;53.35;;;27.15;;
50773;SDS011;36745;48.544;8.918;2023-12-04T07:46:44;55.53;;;26.23;;
50773;SDS011;36745;48.544;8.918;2023-12-04T07:50:05;63.63;;;30.95;;
50773;SDS011;36745;48.544;8.918;2023-12-04T07:53:26;55.17;;;27.42;;
50773;SDS011;36745;48.544;8.918;2023-12-04T07:56:46;71.18;;;33.50;;
50773;SDS011;36745;48.544;8.918;2023-12-04T08:00:05;43.65;;;23.83;;
50773;SDS011;36745;48.544;8.918;2023-12-04T08:03:26;52.55;;;25.70;;
50773;SDS011;36745;48.544;8.918;2023-12-04T08:06:46;51.35;;;27.13;;
50773;SDS011;36745;48.544;8.918;2023-12-04T08:10:06;52.60;;;26.35;;
50773;SDS011;36745;48.544;8.918;2023-12-04T08:13:26;72.38;;;32.10;;
50773;SDS011;36745;48.544;8.918;2023-12-04T08:16:47;55.60;;;29.60;;
50773;SDS011;36745;48.544;8.918;2023-12-04T08:20:07;79.65;;;37.05;;
50773;SDS011;36745;48.544;8.918;2023-12-04T08:23:32;43.22;;;23.55;;
50773;SDS011;36745;48.544;8.918;2023-12-04T08:26:52;51.38;;;30.08;;
50773;SDS011;36745;48.544;8.918;2023-12-04T08:44:21;66.80;;;36.25;;
50773;SDS011;36745;48.544;8.918;2023-12-04T08:47:41;54.83;;;30.50;;
50773;SDS011;36745;48.544;8.918;2023-12-04T08:51:01;49.45;;;29.23;;
50773;SDS011;36745;48.544;8.918;2023-12-04T08:54:24;49.47;;;29.53;;
50773;SDS011;36745;48.544;8.918;2023-12-04T08:57:44;48.67;;;27.85;;
50773;SDS011;36745;48.544;8.918;2023-12-04T09:01:04;53.72;;;30.33;;
50773;SDS011;36745;48.544;8.918;2023-12-04T09:04:24;49.33;;;27.85;;
50773;SDS011;36745;48.544;8.918;2023-12-04T09:07:43;50.20;;;28.50;;
50773;SDS011;36745;48.544;8.918;2023-12-04T09:11:03;61.05;;;34.75;;
50773;SDS011;36745;48.544;8.918;2023-12-04T09:14:23;50.22;;;28.23;;
50773;SDS011;36745;48.544;8.918;2023-12-04T09:17:43;59.40;;;37.03;;
50773;SDS011;36745;48.544;8.918;2023-12-04T09:21:03;45.25;;;28.10;;
50773;SDS011;36745;48.544;8.918;2023-12-04T09:24:23;47.80;;;27.88;;
50773;SDS011;36745;48.544;8.918;2023-12-04T09:27:43;68.90;;;34.95;;
50773;SDS011;36745;48.544;8.918;2023-12-04T09:31:03;52.80;;;30.00;;
50773;SDS011;36745;48.544;8.918;2023-12-04T09:34:23;68.47;;;33.65;;
50773;SDS011;36745;48.544;8.918;2023-12-04T09:37:42;39.72;;;22.55;;
50773;SDS011;36745;48.544;8.918;2023-12-04T09:41:02;65.38;;;30.02;;
50773;SDS011;36745;48.544;8.918;2023-12-04T09:44:23;40.15;;;24.05;;
50773;SDS011;36745;48.544;8.918;2023-12-04T09:47:45;36.45;;;22.20;;
50773;SDS011;36745;48.544;8.918;2023-12-04T09:51:08;36.85;;;22.23;;
50773;SDS011;36745;48.544;8.918;2023-12-04T09:54:29;48.78;;;26.42;;
50773;SDS011;36745;48.544;8.918;2023-12-04T09:57:49;35.55;;;21.08;;
50773;SDS011;36745;48.544;8.918;2023-12-04T10:01:09;69.78;;;32.42;;
50773;SDS011;36745;48.544;8.918;2023-12-04T10:04:30;52.65;;;25.85;;
50773;SDS011;36745;48.544;8.918;2023-12-04T10:07:51;37.95;;;22.25;;
50773;SDS011;36745;48.544;8.918;2023-12-04T10:11:12;41.25;;;24.25;;
50773;SDS011;36745;48.544;8.918;2023-12-04T10:14:32;38.55;;;23.00;;
50773;SDS011;36745;48.544;8.918;2023-12-04T10:17:52;41.97;;;24.98;;
50773;SDS011;36745;48.544;8.918;2023-12-04T10:21:13;46.63;;;25.13;;
50773;SDS011;36745;48.544;8.918;2023-12-04T10:24:39;42.03;;;24.65;;
50773;SDS011;36745;48.544;8.918;2023-12-04T10:28:09;36.00;;;21.60;;
50773;SDS011;36745;48.544;8.918;2023-12-04T10:31:32;33.72;;;20.40;;
50773;SDS011;36745;48.544;8.918;2023-12-04T10:34:54;36.00;;;20.67;;
50773;SDS011;36745;48.544;8.918;2023-12-04T10:38:14;34.67;;;20.02;;
50773;SDS011;36745;48.544;8.918;2023-12-04T10:41:34;36.95;;;22.52;;
50773;SDS011;36745;48.544;8.918;2023-12-04T10:44:54;36.15;;;22.48;;
50773;SDS011;36745;48.544;8.918;2023-12-04T10:48:16;46.20;;;23.40;;
50773;SDS011;36745;48.544;8.918;2023-12-04T10:51:37;40.10;;;22.67;;
50773;SDS011;36745;48.544;8.918;2023-12-04T10:54:57;41.17;;;22.65;;
50773;SDS011;36745;48.544;8.918;2023-12-04T10:58:17;34.80;;;21.33;;
50773;SDS011;36745;48.544;8.918;2023-12-04T11:01:39;36.30;;;20.80;;
50773;SDS011;36745;48.544;8.918;2023-12-04T11:05:05;24.58;;;14.23;;
50773;SDS011;36745;48.544;8.918;2023-12-04T11:08:33;34.85;;;20.92;;
50773;SDS011;36745;48.544;8.918;2023-12-04T11:11:56;37.42;;;23.35;;
50773;SDS011;36745;48.544;8.918;2023-12-04T11:15:19;37.05;;;23.45;;
50773;SDS011;36745;48.544;8.918;2023-12-04T11:18:43;34.33;;;20.65;;
50773;SDS011;36745;48.544;8.918;2023-12-04T11:22:07;32.25;;;19.08;;
50773;SDS011;36745;48.544;8.918;2023-12-04T11:25:29;37.45;;;23.20;;
50773;SDS011;36745;48.544;8.918;2023-12-04T11:28:53;39.13;;;21.15;;
50773;SDS011;36745;48.544;8.918;2023-12-04T11:32:14;33.65;;;19.08;;
50773;SDS011;36745;48.544;8.918;2023-12-04T11:35:35;33.72;;;19.98;;
50773;SDS011;36745;48.544;8.918;2023-12-04T11:38:58;30.98;;;19.58;;
50773;SDS011;36745;48.544;8.918;2023-12-04T11:42:23;30.48;;;18.27;;
50773;SDS011;36745;48.544;8.918;2023-12-04T11:45:43;30.85;;;18.38;;
50773;SDS011;36745;48.544;8.918;2023-12-04T11:52:45;28.55;;;18.42;;
50773;SDS011;36745;48.544;8.918;2023-12-04T11:56:09;30.55;;;18.60;;
50773;SDS011;36745;48.544;8.918;2023-12-04T11:59:34;29.88;;;18.33;;
50773;SDS011;36745;48.544;8.918;2023-12-04T12:06:17;27.33;;;17.83;;
50773;SDS011;36745;48.544;8.918;2023-12-04T12:09:37;28.20;;;18.30;;
50773;SDS011;36745;48.544;8.918;2023-12-04T12:12:57;28.80;;;17.88;;
50773;SDS011;36745;48.544;8.918;2023-12-04T12:16:18;29.40;;;18.15;;
50773;SDS011;36745;48.544;8.918;2023-12-04T12:19:37;29.02;;;17.85;;
50773;SDS011;36745;48.544;8.918;2023-12-04T12:22:57;33.67;;;19.45;;
50773;SDS011;36745;48.544;8.918;2023-12-04T12:26:17;30.20;;;18.98;;
50773;SDS011;36745;48.544;8.918;2023-12-04T12:29:37;34.50;;;19.85;;
50773;SDS011;36745;48.544;8.918;2023-12-04T12:32:57;90.28;;;32.97;;
50773;SDS011;36745;48.544;8.918;2023-12-04T12:36:17;95.50;;;35.70;;
50773;SDS011;36745;48.544;8.918;2023-12-04T12:39:37;87.03;;;33.13;;
50773;SDS011;36745;48.544;8.918;2023-12-04T12:43:06;37.03;;;22.48;;
50773;SDS011;36745;48.544;8.918;2023-12-04T12:46:27;46.60;;;25.63;;
50773;SDS011;36745;48.544;8.918;2023-12-04T12:49:47;40.75;;;23.98;;
50773;SDS011;36745;48.544;8.918;2023-12-04T12:53:07;39.17;;;22.83;;
50773;SDS011;36745;48.544;8.918;2023-12-04T12:56:26;39.47;;;23.15;;
50773;SDS011;36745;48.544;8.918;2023-12-04T12:59:46;50.83;;;27.17;;
50773;SDS011;36745;48.544;8.918;2023-12-04T13:03:13;36.45;;;22.27;;
50773;SDS011;36745;48.544;8.918;2023-12-04T13:06:36;36.58;;;21.85;;
50773;SDS011;36745;48.544;8.918;2023-12-04T13:09:55;30.55;;;19.95;;
50773;SDS011;36745;48.544;8.918;2023-12-04T13:13:16;34.15;;;21.33;;
50773;SDS011;36745;48.544;8.918;2023-12-04T13:16:35;36.45;;;22.67;;
50773;SDS011;36745;48.544;8.918;2023-12-04T13:19:55;38.10;;;23.15;;
50773;SDS011;36745;48.544;8.918;2023-12-04T13:23:15;33.10;;;20.67;;
50773;SDS011;36745;48.544;8.918;2023-12-04T13:26:35;34.58;;;21.58;;
50773;SDS011;36745;48.544;8.918;2023-12-04T13:29:55;41.60;;;23.70;;
50773;SDS011;36745;48.544;8.918;2023-12-04T13:33:14;41.97;;;25.38;;
50773;SDS011;36745;48.544;8.918;2023-12-04T13:36:34;39.00;;;23.95;;
50773;SDS011;36745;48.544;8.918;2023-12-04T13:39:55;36.90;;;22.70;;
50773;SDS011;36745;48.544;8.918;2023-12-04T13:43:17;32.55;;;20.40;;
50773;SDS011;36745;48.544;8.918;2023-12-04T13:46:56;37.38;;;23.75;;
50773;SDS011;36745;48.544;8.918;2023-12-04T13:50:16;39.88;;;21.83;;
50773;SDS011;36745;48.544;8.918;2023-12-04T13:53:36;35.75;;;20.45;;
50773;SDS011;36745;48.544;8.918;2023-12-04T13:57:03;33.92;;;21.23;;
50773;SDS011;36745;48.544;8.918;2023-12-04T14:00:23;32.70;;;20.80;;
50773;SDS011;36745;48.544;8.918;2023-12-04T14:03:44;34.92;;;21.75;;
50773;SDS011;36745;48.544;8.918;2023-12-04T14:07:04;38.00;;;23.98;;
50773;SDS011;36745;48.544;8.918;2023-12-04T14:10:27;50.20;;;27.08;;
50773;SDS011;36745;48.544;8.918;2023-12-04T14:13:47;41.30;;;24.05;;
50773;SDS011;36745;48.544;8.918;2023-12-04T14:17:06;36.50;;;22.33;;
50773;SDS011;36745;48.544;8.918;2023-12-04T14:20:28;43.78;;;25.02;;
50773;SDS011;36745;48.544;8.918;2023-12-04T14:23:48;34.80;;;21.05;;
50773;SDS011;36745;48.544;8.918;2023-12-04T14:27:08;34.65;;;21.10;;
50773;SDS011;36745;48.544;8.918;2023-12-04T14:30:27;36.90;;;23.02;;
50773;SDS011;36745;48.544;8.918;2023-12-04T14:33:47;40.05;;;25.00;;
50773;SDS011;36745;48.544;8.918;2023-12-04T14:37:08;52.17;;;27.77;;
50773;SDS011;36745;48.544;8.918;2023-12-04T14:40:28;50.88;;;30.48;;
50773;SDS011;36745;48.544;8.918;2023-12-04T14:43:48;40.05;;;24.48;;
50773;SDS011;36745;48.544;8.918;2023-12-04T14:47:08;38.63;;;23.55;;
50773;SDS011;36745;48.544;8.918;2023-12-04T14:50:28;42.33;;;24.98;;
50773;SDS011;36745;48.544;8.918;2023-12-04T14:53:48;44.40;;;25.95;;
50773;SDS011;36745;48.544;8.918;2023-12-04T14:57:23;37.17;;;22.98;;
50773;SDS011;36745;48.544;8.918;2023-12-04T15:00:48;42.83;;;24.70;;
50773;SDS011;36745;48.544;8.918;2023-12-04T15:04:30;41.42;;;24.05;;
50773;SDS011;36745;48.544;8.918;2023-12-04T15:08:09;42.28;;;24.73;;
50773;SDS011;36745;48.544;8.918;2023-12-04T15:11:37;38.35;;;24.05;;
50773;SDS011;36745;48.544;8.918;2023-12-04T15:15:16;37.65;;;26.30;;
50773;SDS011;36745;48.544;8.918;2023-12-04T15:18:44;47.38;;;30.45;;
50773;SDS011;36745;48.544;8.918;2023-12-04T15:22:24;44.97;;;26.50;;
50773;SDS011;36745;48.544;8.918;2023-12-04T15:25:43;51.28;;;29.58;;
50773;SDS011;36745;48.544;8.918;2023-12-04T15:29:03;78.50;;;40.60;;
50773;SDS011;36745;48.544;8.918;2023-12-04T15:32:24;64.22;;;36.50;;
50773;SDS011;36745;48.544;8.918;2023-12-04T15:35:44;66.85;;;38.17;;
50773;SDS011;36745;48.544;8.918;2023-12-04T15:39:04;67.25;;;40.88;;
50773;SDS011;36745;48.544;8.918;2023-12-04T15:42:24;52.15;;;31.02;;
50773;SDS011;36745;48.544;8.918;2023-12-04T15:45:45;47.97;;;27.77;;
50773;SDS011;36745;48.544;8.918;2023-12-04T15:49:05;43.22;;;27.52;;
50773;SDS011;36745;48.544;8.918;2023-12-04T15:52:25;42.72;;;26.85;;
50773;SDS011;36745;48.544;8.918;2023-12-04T15:55:45;47.28;;;28.70;;
50773;SDS011;36745;48.544;8.918;2023-12-04T15:59:06;43.45;;;27.13;;
50773;SDS011;36745;48.544;8.918;2023-12-04T16:02:25;47.78;;;25.80;;
50773;SDS011;36745;48.544;8.918;2023-12-04T16:05:45;45.42;;;29.00;;
50773;SDS011;36745;48.544;8.918;2023-12-04T16:09:05;48.70;;;27.60;;
50773;SDS011;36745;48.544;8.918;2023-12-04T16:12:25;42.35;;;25.55;;
50773;SDS011;36745;48.544;8.918;2023-12-04T16:15:44;41.05;;;25.15;;
50773;SDS011;36745;48.544;8.918;2023-12-04T16:19:06;50.88;;;34.40;;
50773;SDS011;36745;48.544;8.918;2023-12-04T16:22:26;43.35;;;28.15;;
50773;SDS011;36745;48.544;8.918;2023-12-04T16:25:46;49.03;;;32.17;;
50773;SDS011;36745;48.544;8.918;2023-12-04T16:29:06;43.80;;;26.17;;
50773;SDS011;36745;48.544;8.918;2023-12-04T16:32:26;41.47;;;25.50;;
50773;SDS011;36745;48.544;8.918;2023-12-04T16:35:45;42.22;;;26.45;;
50773;SDS011;36745;48.544;8.918;2023-12-04T16:39:05;48.20;;;28.48;;
50773;SDS011;36745;48.544;8.918;2023-12-04T16:42:25;43.42;;;27.30;;
50773;SDS011;36745;48.544;8.918;2023-12-04T16:45:45;41.33;;;26.33;;
50773;SDS011;36745;48.544;8.918;2023-12-04T16:49:04;48.60;;;29.80;;
50773;SDS011;36745;48.544;8.918;2023-12-04T16:52:25;50.60;;;33.08;;
50773;SDS011;36745;48.544;8.918;2023-12-04T16:55:44;52.00;;;33.72;;
50773;SDS011;36745;48.544;8.918;2023-12-04T16:59:04;52.05;;;32.40;;
50773;SDS011;36745;48.544;8.918;2023-12-04T17:02:24;51.90;;;31.60;;
50773;SDS011;36745;48.544;8.918;2023-12-04T17:05:44;51.75;;;33.42;;
50773;SDS011;36745;48.544;8.918;2023-12-04T17:09:04;55.33;;;34.67;;
50773;SDS011;36745;48.544;8.918;2023-12-04T17:12:23;53.38;;;31.63;;
50773;SDS011;36745;48.544;8.918;2023-12-04T17:15:43;45.38;;;26.63;;
50773;SDS011;36745;48.544;8.918;2023-12-04T17:19:03;50.28;;;26.98;;
50773;SDS011;36745;48.544;8.918;2023-12-04T17:22:23;49.38;;;28.98;;
50773;SDS011;36745;48.544;8.918;2023-12-04T17:25:45;56.00;;;33.63;;
50773;SDS011;36745;48.544;8.918;2023-12-04T17:29:05;54.70;;;30.08;;
50773;SDS011;36745;48.544;8.918;2023-12-04T17:32:25;51.70;;;29.73;;
50773;SDS011;36745;48.544;8.918;2023-12-04T17:35:44;46.47;;;28.38;;
50773;SDS011;36745;48.544;8.918;2023-12-04T17:39:04;48.95;;;28.17;;
50773;SDS011;36745;48.544;8.918;2023-12-04T17:42:27;48.75;;;28.73;;
50773;SDS011;36745;48.544;8.918;2023-12-04T17:45:46;48.17;;;30.55;;
50773;SDS011;36745;48.544;8.918;2023-12-04T17:49:07;51.40;;;31.65;;
50773;SDS011;36745;48.544;8.918;2023-12-04T17:52:27;52.67;;;32.90;;
50773;SDS011;36745;48.544;8.918;2023-12-04T17:55:47;56.08;;;33.30;;
50773;SDS011;36745;48.544;8.918;2023-12-04T17:59:07;54.28;;;34.67;;
50773;SDS011;36745;48.544;8.918;2023-12-04T18:02:26;70.60;;;38.95;;
50773;SDS011;36745;48.544;8.918;2023-12-04T18:05:46;55.20;;;33.95;;
50773;SDS011;36745;48.544;8.918;2023-12-04T18:09:06;53.90;;;30.58;;
50773;SDS011;36745;48.544;8.918;2023-12-04T18:12:27;40.80;;;26.17;;
50773;SDS011;36745;48.544;8.918;2023-12-04T18:15:47;42.88;;;27.10;;
50773;SDS011;36745;48.544;8.918;2023-12-04T18:19:06;39.47;;;25.27;;
50773;SDS011;36745;48.544;8.918;2023-12-04T18:22:26;41.90;;;26.92;;
50773;SDS011;36745;48.544;8.918;2023-12-04T18:25:46;44.25;;;27.20;;
50773;SDS011;36745;48.544;8.918;2023-12-04T18:29:06;44.97;;;27.95;;
50773;SDS011;36745;48.544;8.918;2023-12-04T18:32:27;42.38;;;27.45;;
50773;SDS011;36745;48.544;8.918;2023-12-04T18:35:47;41.55;;;26.05;;
50773;SDS011;36745;48.544;8.918;2023-12-04T18:39:07;46.25;;;26.70;;
50773;SDS011;36745;48.544;8.918;2023-12-04T18:45:51;48.78;;;28.63;;
50773;SDS011;36745;48.544;8.918;2023-12-04T18:49:11;48.35;;;28.70;;
50773;SDS011;36745;48.544;8.918;2023-12-04T18:52:32;45.97;;;27.75;;
50773;SDS011;36745;48.544;8.918;2023-12-04T18:55:52;40.78;;;25.08;;
50773;SDS011;36745;48.544;8.918;2023-12-04T18:59:12;38.03;;;23.77;;
50773;SDS011;36745;48.544;8.918;2023-12-04T19:02:32;38.20;;;25.02;;
50773;SDS011;36745;48.544;8.918;2023-12-04T19:05:52;42.58;;;26.45;;
50773;SDS011;36745;48.544;8.918;2023-12-04T19:09:12;49.83;;;31.00;;
50773;SDS011;36745;48.544;8.918;2023-12-04T19:12:32;48.33;;;29.60;;
50773;SDS011;36745;48.544;8.918;2023-12-04T19:15:52;42.38;;;26.45;;
50773;SDS011;36745;48.544;8.918;2023-12-04T19:19:12;47.85;;;31.27;;
50773;SDS011;36745;48.544;8.918;2023-12-04T19:22:32;51.05;;;30.42;;
50773;SDS011;36745;48.544;8.918;2023-12-04T19:25:52;58.90;;;37.65;;
50773;SDS011;36745;48.544;8.918;2023-12-04T19:29:11;54.85;;;36.42;;
50773;SDS011;36745;48.544;8.918;2023-12-04T19:32:31;66.90;;;42.50;;
50773;SDS011;36745;48.544;8.918;2023-12-04T19:35:51;74.45;;;46.33;;
50773;SDS011;36745;48.544;8.918;2023-12-04T19:39:11;75.65;;;46.55;;
50773;SDS011;36745;48.544;8.918;2023-12-04T19:42:31;82.55;;;50.42;;
50773;SDS011;36745;48.544;8.918;2023-12-04T19:45:50;79.65;;;49.90;;
50773;SDS011;36745;48.544;8.918;2023-12-04T19:49:10;67.60;;;44.78;;
50773;SDS011;36745;48.544;8.918;2023-12-04T19:52:30;67.97;;;44.00;;
50773;SDS011;36745;48.544;8.918;2023-12-04T19:55:52;61.13;;;38.72;;
50773;SDS011;36745;48.544;8.918;2023-12-04T19:59:12;62.15;;;39.30;;